Time;durP1;ratioP1;P1;durP2;ratioP2;P2;SDS_P1;SDS_P2;PMS_P1;PMS_P2;Temp;Humidity;BMP_temperature;BMP_pressure;BME280_temperature;BME280_humidity;BME280_pressure;Samples;Min_cycle;Max_cycle;Signal;HPM_P1;HPM_P2
2022/03/07 00:02:12;;;;;;;29.92;19.42;;;2.40;32.60;;;;;;4976444;28;20046;-71
2022/03/07 00:04:38;;;;;;;27.55;19.13;;;2.50;34.40;;;;;;4975777;28;20568;-71
2022/03/07 00:07:05;;;;;;;27.02;18.42;;;2.40;44.50;;;;;;4976332;28;20133;-71
2022/03/07 00:09:31;;;;;;;25.67;18.50;;;2.40;40.70;;;;;;4976385;28;20038;-71
2022/03/07 00:11:57;;;;;;;30.60;18.63;;;2.30;34.40;;;;;;4976266;28;20047;-71
2022/03/07 00:14:22;;;;;;;31.92;18.83;;;2.30;39.10;;;;;;4975989;28;20047;-71
2022/03/07 00:16:48;;;;;;;29.40;19.27;;;2.30;40.60;;;;;;4976206;28;20043;-71
2022/03/07 00:19:14;;;;;;;24.67;17.17;;;2.30;37.10;;;;;;4976107;28;20490;-71
2022/03/07 00:21:40;;;;;;;29.67;17.90;;;2.30;37.40;;;;;;4975821;28;20085;-71
2022/03/07 00:24:08;;;;;;;25.05;18.02;;;2.20;40.20;;;;;;4976000;28;20043;-71
2022/03/07 00:26:35;;;;;;;27.17;19.08;;;2.20;44.10;;;;;;4976023;28;20050;-71
2022/03/07 00:29:00;;;;;;;35.78;24.02;;;2.30;54.40;;;;;;4975565;28;20472;-71
2022/03/07 00:31:26;;;;;;;29.23;19.70;;;2.20;49.80;;;;;;4975967;28;20062;-71
2022/03/07 00:33:53;;;;;;;27.05;18.10;;;2.10;44.00;;;;;;4975772;28;20100;-71
2022/03/07 00:36:19;;;;;;;28.50;18.58;;;2.10;51.60;;;;;;4976055;28;20129;-71
2022/03/07 00:38:46;;;;;;;32.50;18.70;;;2.00;50.60;;;;;;4975261;28;20062;-71
2022/03/07 00:41:12;;;;;;;27.33;18.08;;;2.00;48.00;;;;;;4975571;28;20046;-71
2022/03/07 00:43:39;;;;;;;30.63;20.73;;;2.00;52.60;;;;;;4976031;28;20045;-71
2022/03/07 00:46:06;;;;;;;31.02;20.10;;;1.90;52.80;;;;;;4975808;28;20078;-71
2022/03/07 00:48:33;;;;;;;38.85;24.25;;;1.90;51.20;;;;;;4982845;28;20052;-71
2022/03/07 00:50:59;;;;;;;28.58;18.92;;;1.90;55.20;;;;;;4994864;28;20034;-71
2022/03/07 00:53:27;;;;;;;30.08;20.45;;;1.90;61.90;;;;;;4994811;28;20042;-71
2022/03/07 00:55:55;;;;;;;31.83;19.27;;;1.90;50.90;;;;;;4994692;28;20093;-71
2022/03/07 00:58:22;;;;;;;28.08;18.52;;;1.90;55.70;;;;;;4995197;28;20175;-71
2022/03/07 01:00:49;;;;;;;25.08;18.05;;;1.80;58.10;;;;;;4995307;28;20092;-71
2022/03/07 01:03:16;;;;;;;27.88;18.67;;;1.80;57.40;;;;;;4995117;28;20049;-71
2022/03/07 01:05:44;;;;;;;34.17;22.17;;;1.80;62.10;;;;;;4994998;28;20042;-71
2022/03/07 01:08:10;;;;;;;28.45;18.73;;;1.80;49.40;;;;;;4995237;28;20096;-71
2022/03/07 01:10:37;;;;;;;37.25;22.83;;;1.80;60.80;;;;;;4994685;28;20039;-71
2022/03/07 01:13:03;;;;;;;27.95;18.60;;;1.80;58.60;;;;;;4994918;28;20045;-71
2022/03/07 01:15:29;;;;;;;28.92;17.98;;;1.80;50.50;;;;;;4994951;28;20042;-71
2022/03/07 01:17:59;;;;;;;24.95;16.75;;;1.70;48.40;;;;;;4994993;28;20432;-71
2022/03/07 01:20:26;;;;;;;29.15;17.90;;;1.60;46.30;;;;;;4995488;28;20082;-71
2022/03/07 01:22:52;;;;;;;28.00;18.60;;;1.60;55.60;;;;;;4994841;28;20057;-71
2022/03/07 01:25:18;;;;;;;26.63;18.23;;;1.60;52.90;;;;;;4995367;28;20035;-71
2022/03/07 01:27:44;;;;;;;32.08;18.73;;;1.60;64.10;;;;;;4995086;28;20374;-71
2022/03/07 01:30:10;;;;;;;32.60;20.60;;;1.60;58.80;;;;;;4995120;28;20038;-71
2022/03/07 01:32:36;;;;;;;30.10;18.65;;;1.50;62.10;;;;;;4994318;28;20045;-72
2022/03/07 01:35:06;;;;;;;29.95;19.17;;;1.50;59.90;;;;;;4994745;28;20038;-72
2022/03/07 01:37:32;;;;;;;32.17;19.45;;;1.50;61.90;;;;;;4994998;28;20050;-71
2022/03/07 01:39:58;;;;;;;29.05;17.77;;;1.40;51.30;;;;;;4995026;28;20114;-71
2022/03/07 01:42:24;;;;;;;33.38;21.88;;;1.40;62.70;;;;;;4994726;28;20037;-71
2022/03/07 01:44:50;;;;;;;35.13;21.80;;;1.40;65.50;;;;;;4994588;28;20057;-71
2022/03/07 01:47:15;;;;;;;37.28;23.90;;;1.40;66.10;;;;;;4977214;28;20038;-71
2022/03/07 01:49:41;;;;;;;33.45;20.00;;;1.30;51.90;;;;;;4995267;28;20081;-71
2022/03/07 01:52:08;;;;;;;34.13;20.75;;;1.30;52.00;;;;;;4998586;28;20129;-71
2022/03/07 01:54:34;;;;;;;39.33;25.23;;;1.40;65.90;;;;;;4998252;28;20053;-71
2022/03/07 01:57:00;;;;;;;40.97;26.60;;;1.30;66.10;;;;;;4998752;28;20389;-71
2022/03/07 01:59:28;;;;;;;34.65;22.75;;;1.20;63.70;;;;;;4998480;28;20117;-72
2022/03/07 02:01:55;;;;;;;39.53;24.85;;;1.30;71.70;;;;;;4998426;28;20070;-71
2022/03/07 02:04:21;;;;;;;37.42;24.00;;;1.30;69.30;;;;;;4997813;28;20046;-71
2022/03/07 02:06:48;;;;;;;36.45;22.60;;;1.30;61.60;;;;;;4998592;28;20049;-71
2022/03/07 02:09:15;;;;;;;29.30;19.58;;;1.20;57.90;;;;;;4998446;28;20481;-71
2022/03/07 02:11:42;;;;;;;32.42;18.83;;;1.10;52.20;;;;;;4997914;28;20113;-71
2022/03/07 02:14:20;;;;;;;34.65;22.60;;;1.00;57.10;;;;;;4998182;28;20046;-71
2022/03/07 02:16:46;;;;;;;33.22;22.10;;;1.00;68.70;;;;;;4998666;28;20034;-71
2022/03/07 02:19:13;;;;;;;32.72;23.27;;;0.90;46.10;;;;;;4998046;28;20044;-71
2022/03/07 02:21:44;;;;;;;36.13;23.30;;;0.90;66.30;;;;;;4998330;28;20407;-71
2022/03/07 02:24:10;;;;;;;;;;;0.90;76.50;;;;;;4998403;28;20046;-71
2022/03/07 02:26:36;;;;;;;29.40;17.75;;;0.90;66.90;;;;;;4997563;28;20392;-71
2022/03/07 02:29:02;;;;;;;29.60;19.02;;;0.90;64.70;;;;;;4997926;28;20053;-71
2022/03/07 02:31:29;;;;;;;28.27;18.88;;;0.90;69.10;;;;;;4998129;28;20038;-71
2022/03/07 02:33:56;;;;;;;29.67;19.45;;;1.00;65.50;;;;;;4997267;28;20046;-71
2022/03/07 02:36:22;;;;;;;35.58;24.45;;;0.80;50.20;;;;;;4998220;28;20045;-71
2022/03/07 02:38:48;;;;;;;37.60;25.38;;;0.90;59.60;;;;;;4997464;28;20034;-71
2022/03/07 02:41:15;;;;;;;29.42;20.63;;;0.80;44.90;;;;;;4997641;28;20177;-71
2022/03/07 02:43:41;;;;;;;27.25;18.17;;;0.70;41.40;;;;;;4997257;28;20053;-71
2022/03/07 02:46:06;;;;;;;25.50;16.88;;;0.80;51.20;;;;;;4997404;28;20046;-71
2022/03/07 02:48:32;;;;;;;27.60;17.55;;;0.60;41.10;;;;;;4997378;28;20080;-71
2022/03/07 02:50:58;;;;;;;28.65;18.42;;;0.70;69.90;;;;;;4997771;28;20470;-71
2022/03/07 02:53:25;;;;;;;28.67;18.08;;;0.70;70.60;;;;;;4997719;28;20038;-71
2022/03/07 02:55:51;;;;;;;26.38;16.38;;;0.80;65.70;;;;;;4997540;28;20097;-71
2022/03/07 02:58:17;;;;;;;27.25;18.20;;;0.80;61.10;;;;;;4997768;28;20046;-71
2022/03/07 03:00:43;;;;;;;30.30;16.98;;;0.70;52.60;;;;;;4997540;28;20114;-71
2022/03/07 03:03:09;;;;;;;27.77;17.33;;;0.70;52.40;;;;;;4996601;28;20393;-71
2022/03/07 03:05:35;;;;;;;24.13;16.17;;;0.60;41.80;;;;;;4997282;28;20100;-71
2022/03/07 03:08:00;;;;;;;27.40;16.67;;;0.50;41.50;;;;;;4997555;28;20077;-71
2022/03/07 03:10:26;;;;;;;25.13;15.52;;;0.50;56.10;;;;;;4996953;28;20489;-71
2022/03/07 03:12:52;;;;;;;25.48;16.85;;;0.50;60.40;;;;;;4997060;28;20377;-71
2022/03/07 03:15:18;;;;;;;24.80;17.02;;;0.40;57.20;;;;;;4997107;28;20042;-71
2022/03/07 03:17:45;;;;;;;27.17;16.98;;;0.40;68.70;;;;;;4996918;28;20038;-71
2022/03/07 03:20:14;;;;;;;26.17;16.20;;;0.30;67.10;;;;;;4996869;28;20192;-71
2022/03/07 03:22:42;;;;;;;24.23;16.50;;;0.40;76.90;;;;;;4997172;28;20049;-71
2022/03/07 03:25:09;;;;;;;24.20;16.42;;;0.50;76.50;;;;;;4996735;28;20046;-71
2022/03/07 03:27:35;;;;;;;24.42;16.30;;;0.50;55.80;;;;;;4997052;28;20131;-71
2022/03/07 03:30:02;;;;;;;21.85;14.38;;;0.30;49.10;;;;;;4996774;28;20065;-71
2022/03/07 03:32:29;;;;;;;25.83;15.02;;;0.20;53.40;;;;;;4997372;28;20112;-71
2022/03/07 03:34:56;;;;;;;23.33;14.57;;;0.20;51.70;;;;;;4997202;28;20038;-71
2022/03/07 03:37:24;;;;;;;24.63;14.75;;;0.20;56.90;;;;;;4996351;28;20038;-71
2022/03/07 03:39:50;;;;;;;26.38;16.10;;;0.10;54.40;;;;;;4996360;28;20042;-71
2022/03/07 03:42:16;;;;;;;26.83;15.90;;;0.10;61.20;;;;;;4996541;28;20100;-71
2022/03/07 03:44:42;;;;;;;24.58;15.13;;;0.00;56.90;;;;;;4996103;28;20432;-71
2022/03/07 03:47:08;;;;;;;25.50;14.85;;;0.00;68.60;;;;;;4996213;28;20050;-71
2022/03/07 03:49:34;;;;;;;24.35;15.65;;;0.00;83.40;;;;;;4996774;28;20066;-71
2022/03/07 03:52:00;;;;;;;25.92;15.70;;;0.00;67.10;;;;;;4996394;28;20125;-71
2022/03/07 03:54:25;;;;;;;26.40;17.33;;;0.10;77.70;;;;;;4996325;28;20389;-71
2022/03/07 03:56:52;;;;;;;23.92;15.23;;;0.00;62.20;;;;;;4996003;28;20065;-71
2022/03/07 03:59:17;;;;;;;22.52;15.30;;;0.00;66.20;;;;;;4996313;28;20045;-71
2022/03/07 04:01:46;;;;;;;24.77;15.18;;;0.00;60.70;;;;;;4996173;28;20038;-70
2022/03/07 04:04:13;;;;;;;23.55;15.85;;;-0.10;61.80;;;;;;4995652;28;20078;-71
2022/03/07 04:06:40;;;;;;;21.80;14.82;;;-0.30;41.20;;;;;;4996133;28;20050;-71
2022/03/07 04:09:24;;;;;;;24.77;15.15;;;-0.20;68.00;;;;;;4996024;28;20042;-71
2022/03/07 04:11:50;;;;;;;27.25;16.60;;;-0.30;60.80;;;;;;4996324;28;20069;-71
2022/03/07 04:14:16;;;;;;;28.75;17.10;;;-0.20;82.10;;;;;;4994830;28;20485;-71
2022/03/07 04:16:43;;;;;;;29.50;17.23;;;-0.10;88.00;;;;;;4996445;28;20069;-71
2022/03/07 04:19:11;;;;;;;28.17;18.15;;;0.00;80.90;;;;;;4995976;28;20042;-71
2022/03/07 04:21:39;;;;;;;29.27;17.67;;;-0.10;75.70;;;;;;4995553;28;20034;-71
2022/03/07 04:24:09;;;;;;;28.85;18.17;;;0.00;60.60;;;;;;4995458;28;20046;-71
2022/03/07 04:26:36;;;;;;;26.95;17.27;;;0.00;50.70;;;;;;4996036;28;20121;-71
2022/03/07 04:29:08;;;;;;;26.52;17.25;;;-0.20;43.60;;;;;;4995609;28;20094;-71
2022/03/07 04:31:41;;;;;;;24.35;15.90;;;-0.30;60.10;;;;;;4995475;28;20409;-71
2022/03/07 04:34:09;;;;;;;22.58;15.07;;;-0.20;70.90;;;;;;4995358;28;20068;-71
2022/03/07 04:36:37;;;;;;;25.15;16.02;;;-0.20;75.60;;;;;;4995631;28;20045;-70
2022/03/07 04:39:04;;;;;;;25.27;16.95;;;-0.10;76.70;;;;;;4995860;28;20049;-71
2022/03/07 04:41:30;;;;;;;26.92;16.70;;;-0.10;57.60;;;;;;4995561;28;20077;-71
2022/03/07 04:43:56;;;;;;;25.73;16.42;;;0.00;58.90;;;;;;4995442;28;20508;-71
2022/03/07 04:46:22;;;;;;;25.10;15.60;;;0.00;48.60;;;;;;4995480;28;20042;-71
2022/03/07 04:48:48;;;;;;;26.83;16.42;;;0.00;46.20;;;;;;4995256;28;20058;-71
2022/03/07 04:51:14;;;;;;;24.70;17.25;;;-0.10;36.80;;;;;;4994864;28;20030;-71
2022/03/07 04:53:40;;;;;;;24.92;16.55;;;-0.20;36.80;;;;;;4994840;28;20401;-71
2022/03/07 04:56:06;;;;;;;24.35;15.88;;;-0.10;48.80;;;;;;4995144;28;20540;-71
2022/03/07 04:58:32;;;;;;;24.52;16.00;;;-0.10;38.50;;;;;;4995219;28;20075;-71
2022/03/07 05:00:59;;;;;;;22.48;14.68;;;-0.10;31.00;;;;;;4995092;28;20453;-71
2022/03/07 05:03:25;;;;;;;25.27;15.77;;;-0.10;32.70;;;;;;4993823;28;20100;-71
2022/03/07 05:05:51;;;;;;;24.15;14.60;;;-0.10;38.90;;;;;;4994101;28;20104;-71
2022/03/07 05:08:17;;;;;;;20.95;14.23;;;-0.30;37.40;;;;;;4994219;28;20046;-71
2022/03/07 05:10:43;;;;;;;24.67;14.25;;;-0.30;39.30;;;;;;4993829;28;20042;-71
2022/03/07 05:13:09;;;;;;;21.67;15.13;;;-0.30;46.70;;;;;;4994089;28;20184;-71
2022/03/07 05:15:35;;;;;;;20.27;13.57;;;-0.30;30.10;;;;;;4994328;28;20054;-71
2022/03/07 05:18:01;;;;;;;19.42;12.77;;;-0.30;49.10;;;;;;4993910;28;20038;-71
2022/03/07 05:20:27;;;;;;;19.92;12.98;;;-0.50;44.00;;;;;;4994011;28;20508;-71
2022/03/07 05:22:53;;;;;;;19.15;13.23;;;-0.50;45.10;;;;;;4993952;28;20121;-71
2022/03/07 05:25:21;;;;;;;21.25;13.82;;;-0.50;58.30;;;;;;4995173;28;20048;-71
2022/03/07 05:27:47;;;;;;;18.42;13.23;;;-0.50;54.30;;;;;;4998221;28;20054;-71
2022/03/07 05:30:16;;;;;;;21.67;14.40;;;-0.60;49.40;;;;;;4999001;28;20110;-71
2022/03/07 05:32:47;;;;;;;23.30;13.48;;;-0.50;60.90;;;;;;4998193;28;20042;-71
2022/03/07 05:35:14;;;;;;;24.08;14.52;;;-0.50;55.90;;;;;;4998494;28;20060;-71
2022/03/07 05:37:40;;;;;;;21.15;14.35;;;-0.60;30.70;;;;;;4998055;28;20473;-68
2022/03/07 05:40:08;;;;;;;25.20;14.32;;;-0.60;52.70;;;;;;4997636;28;20125;-71
2022/03/07 05:42:35;;;;;;;23.05;12.77;;;-0.50;38.40;;;;;;4997011;28;20044;-71
2022/03/07 05:45:01;;;;;;;20.00;13.45;;;-0.80;50.80;;;;;;4996476;28;20046;-71
2022/03/07 05:47:26;;;;;;;22.05;13.90;;;-0.80;63.60;;;;;;4997712;28;20129;-71
2022/03/07 05:49:52;;;;;;;25.40;15.40;;;-0.80;57.80;;;;;;4997742;28;20058;-71
2022/03/07 05:52:18;;;;;;;22.55;14.45;;;-0.80;54.80;;;;;;4998300;28;20050;-71
2022/03/07 05:54:44;;;;;;;22.73;15.75;;;-0.80;56.40;;;;;;4998052;28;20046;-71
2022/03/07 05:57:10;;;;;;;23.20;15.27;;;-0.80;60.30;;;;;;4997738;28;20042;-71
2022/03/07 05:59:36;;;;;;;24.38;15.10;;;-0.80;52.10;;;;;;4998209;28;20073;-71
2022/03/07 06:02:02;;;;;;;22.23;15.00;;;-0.90;46.00;;;;;;4997638;28;20078;-71
2022/03/07 06:04:28;;;;;;;23.52;15.20;;;-0.80;53.40;;;;;;4997892;28;20041;-71
2022/03/07 06:06:56;;;;;;;22.55;14.02;;;-0.90;38.90;;;;;;4997626;28;20058;-71
2022/03/07 06:09:22;;;;;;;23.90;16.05;;;-0.90;40.20;;;;;;4997968;28;20046;-71
2022/03/07 06:11:49;;;;;;;23.85;15.13;;;-1.00;54.00;;;;;;4997979;28;20397;-71
2022/03/07 06:14:15;;;;;;;26.77;14.88;;;-0.90;66.60;;;;;;4997275;28;20161;-71
2022/03/07 06:16:41;;;;;;;23.80;15.70;;;-0.90;54.20;;;;;;4996529;28;20048;-71
2022/03/07 06:19:07;;;;;;;21.08;14.88;;;-0.80;54.10;;;;;;4996907;28;20065;-71
2022/03/07 06:21:34;;;;;;;23.52;15.05;;;-0.70;61.30;;;;;;4997114;28;20076;-71
2022/03/07 06:24:00;;;;;;;24.13;16.52;;;-0.70;51.00;;;;;;4993117;28;20088;-71
2022/03/07 06:26:26;;;;;;;29.98;15.77;;;-0.70;44.20;;;;;;4994979;28;20069;-71
2022/03/07 06:28:52;;;;;;;24.35;15.02;;;-0.60;32.70;;;;;;4996030;28;20069;-71
2022/03/07 06:31:18;;;;;;;19.58;13.65;;;-0.50;33.80;;;;;;4995918;28;20073;-71
2022/03/07 06:33:44;;;;;;;21.48;14.63;;;-0.60;20.80;;;;;;4996114;28;20042;-71
2022/03/07 06:36:10;;;;;;;22.67;13.93;;;-0.70;24.70;;;;;;4996719;28;20034;-71
2022/03/07 06:38:36;;;;;;;25.95;14.52;;;-0.70;20.20;;;;;;4995636;28;20120;-71
2022/03/07 06:41:02;;;;;;;20.17;13.80;;;-0.70;14.50;;;;;;4996870;28;20038;-71
2022/03/07 06:43:28;;;;;;;24.75;13.93;;;-0.70;17.90;;;;;;4996992;28;20046;-71
2022/03/07 06:45:54;;;;;;;26.17;15.43;;;-0.60;27.60;;;;;;4997330;28;20049;-71
2022/03/07 06:48:21;;;;;;;22.77;15.77;;;-0.40;24.40;;;;;;4995752;28;20058;-71
2022/03/07 06:50:47;;;;;;;27.15;16.65;;;-0.40;22.20;;;;;;4996625;28;20047;-71
2022/03/07 06:53:13;;;;;;;19.45;14.13;;;-0.10;18.20;;;;;;4996904;28;20038;-71
2022/03/07 06:55:40;;;;;;;26.60;14.60;;;-0.10;8.70;;;;;;4996852;28;20108;-71
2022/03/07 06:58:06;;;;;;;21.88;14.02;;;-0.10;5.70;;;;;;4997137;28;20070;-71
2022/03/07 07:00:32;;;;;;;20.50;14.25;;;0.00;7.00;;;;;;4996633;28;20042;-71
2022/03/07 07:02:58;;;;;;;19.52;13.75;;;0.00;1.00;;;;;;4995801;28;20042;-71
2022/03/07 07:05:24;;;;;;;20.48;12.95;;;0.10;1.00;;;;;;4995886;28;20088;-71
2022/03/07 07:07:50;;;;;;;19.40;12.73;;;0.00;1.00;;;;;;5008696;28;20137;-71
2022/03/07 07:10:18;;;;;;;20.63;14.57;;;0.10;1.00;;;;;;4996552;28;20073;-72
2022/03/07 07:12:45;;;;;;;17.65;12.70;;;0.20;1.00;;;;;;4996225;28;20041;-72
2022/03/07 07:15:11;;;;;;;20.08;13.80;;;0.40;1.00;;;;;;4995762;28;20116;-72
2022/03/07 07:17:37;;;;;;;23.40;15.45;;;0.50;1.00;;;;;;4995431;28;20038;-73
2022/03/07 07:20:05;;;;;;;22.35;15.68;;;0.70;1.00;;;;;;4996693;28;20141;-72
2022/03/07 07:22:31;;;;;;;20.55;13.25;;;0.80;1.00;;;;;;4995353;28;20053;-72
2022/03/07 07:24:57;;;;;;;21.42;15.32;;;0.80;1.00;;;;;;4983684;28;20042;-72
2022/03/07 07:27:23;;;;;;;20.58;14.52;;;0.80;1.00;;;;;;4976938;28;20057;-72
2022/03/07 07:29:49;;;;;;;24.15;16.25;;;0.80;1.00;;;;;;4977148;28;20117;-73
2022/03/07 07:32:15;;;;;;;23.30;15.30;;;0.80;1.00;;;;;;4976988;28;20074;-73
2022/03/07 07:34:41;;;;;;;23.73;15.73;;;0.90;1.00;;;;;;4976618;28;20038;-72
2022/03/07 07:37:08;;;;;;;22.95;14.73;;;0.90;1.00;;;;;;4976667;28;20043;-72
2022/03/07 07:39:33;;;;;;;22.92;15.27;;;1.10;1.00;;;;;;4976936;28;20097;-72
2022/03/07 07:41:59;;;;;;;22.17;15.80;;;1.20;1.00;;;;;;4977371;28;20418;-72
2022/03/07 07:44:26;;;;;;;21.58;15.38;;;1.10;1.00;;;;;;4976411;28;20078;-72
2022/03/07 07:46:53;;;;;;;46.38;30.92;;;1.30;1.00;;;;;;4976605;28;20043;-72
2022/03/07 07:49:21;;;;;;;36.78;24.10;;;1.40;1.00;;;;;;4976117;28;20173;-72
2022/03/07 07:51:47;;;;;;;24.15;16.33;;;1.50;1.00;;;;;;4976577;28;20034;-72
2022/03/07 07:54:13;;;;;;;25.52;15.48;;;1.60;1.00;;;;;;4976097;28;20043;-72
2022/03/07 07:56:39;;;;;;;22.55;15.20;;;1.60;1.00;;;;;;4975378;28;20077;-71
2022/03/07 07:59:05;;;;;;;21.88;14.25;;;1.50;1.00;;;;;;4976091;28;20143;-71
2022/03/07 08:01:31;;;;;;;22.73;16.17;;;1.50;1.00;;;;;;4976519;28;20046;-72
2022/03/07 08:03:57;;;;;;;22.58;15.00;;;1.60;1.00;;;;;;4975927;28;20561;-71
2022/03/07 08:06:23;;;;;;;21.08;14.25;;;1.60;1.00;;;;;;4976426;28;20406;-71
2022/03/07 08:08:49;;;;;;;22.90;16.42;;;1.60;1.00;;;;;;4976599;28;20081;-72
2022/03/07 08:11:15;;;;;;;21.48;14.48;;;1.70;1.00;;;;;;4976586;28;20419;-71
2022/03/07 08:13:41;;;;;;;19.23;14.30;;;1.80;1.00;;;;;;4976523;28;20054;-71
2022/03/07 08:16:07;;;;;;;20.98;14.88;;;2.00;1.00;;;;;;4976314;28;20129;-72
2022/03/07 08:18:33;;;;;;;21.23;15.02;;;2.10;1.00;;;;;;4993201;28;20088;-71
2022/03/07 08:21:00;;;;;;;19.73;13.88;;;2.10;1.00;;;;;;4995618;28;20038;-71
2022/03/07 08:23:26;;;;;;;22.52;16.83;;;2.10;1.00;;;;;;4995534;28;20035;-72
2022/03/07 08:25:52;;;;;;;25.23;16.83;;;2.20;1.00;;;;;;4995179;28;20546;-72
2022/03/07 08:28:18;;;;;;;20.27;15.25;;;2.30;1.00;;;;;;4995730;28;20070;-72
2022/03/07 08:30:45;;;;;;;27.33;16.67;;;2.40;1.00;;;;;;4995442;28;20042;-72
2022/03/07 08:33:11;;;;;;;21.25;15.35;;;2.50;1.00;;;;;;4995248;28;20041;-72
2022/03/07 08:35:37;;;;;;;21.75;15.45;;;2.50;1.00;;;;;;4995387;28;20401;-71
2022/03/07 08:38:03;;;;;;;21.77;14.95;;;2.60;1.00;;;;;;4995559;28;20042;-72
2022/03/07 08:40:29;;;;;;;21.20;15.00;;;2.70;1.00;;;;;;4995065;28;20065;-72
2022/03/07 08:42:54;;;;;;;20.73;15.00;;;2.70;1.00;;;;;;4994990;28;20042;-71
2022/03/07 08:45:22;;;;;;;19.88;14.27;;;2.80;1.00;;;;;;4995437;28;20085;-71
2022/03/07 08:47:50;;;;;;;20.88;15.48;;;3.00;1.00;;;;;;4995197;28;20053;-71
2022/03/07 08:50:18;;;;;;;25.80;17.30;;;3.10;1.00;;;;;;4994925;28;20038;-72
2022/03/07 08:52:44;;;;;;;25.63;16.83;;;3.20;1.00;;;;;;4995403;28;20111;-72
2022/03/07 08:55:10;;;;;;;21.10;14.65;;;3.30;1.00;;;;;;4995464;28;20073;-71
2022/03/07 08:57:37;;;;;;;20.23;15.48;;;3.30;1.00;;;;;;4995426;28;20551;-71
2022/03/07 09:00:08;;;;;;;21.90;14.20;;;3.40;1.00;;;;;;4994584;28;20034;-71
2022/03/07 09:02:34;;;;;;;24.63;15.98;;;3.50;1.00;;;;;;4995171;28;20108;-71
2022/03/07 09:05:00;;;;;;;24.65;15.73;;;3.60;1.00;;;;;;4995007;28;20050;-71
2022/03/07 09:07:28;;;;;;;20.42;15.75;;;3.90;1.00;;;;;;4995371;28;20174;-71
2022/03/07 09:09:58;;;;;;;20.67;15.68;;;4.00;1.00;;;;;;4995104;28;20041;-71
2022/03/07 09:12:27;;;;;;;25.13;15.70;;;4.00;1.00;;;;;;4995569;28;20042;-71
2022/03/07 09:15:00;;;;;;;20.63;15.25;;;4.20;1.00;;;;;;4995270;28;20042;-72
2022/03/07 09:17:27;;;;;;;21.55;14.90;;;4.30;1.00;;;;;;4994781;28;20065;-72
2022/03/07 09:19:56;;;;;;;21.08;15.02;;;4.40;1.00;;;;;;4995280;28;20042;-72
2022/03/07 09:22:22;;;;;;;19.85;14.25;;;4.50;1.00;;;;;;4995383;28;20088;-71
2022/03/07 09:24:47;;;;;;;18.35;13.88;;;4.70;1.00;;;;;;4994851;28;20042;-72
2022/03/07 09:27:13;;;;;;;23.15;12.88;;;5.00;1.00;;;;;;4995166;28;20042;-72
2022/03/07 09:29:39;;;;;;;22.35;13.40;;;5.30;1.00;;;;;;4994952;28;20042;-71
2022/03/07 09:32:06;;;;;;;21.90;13.88;;;5.40;1.00;;;;;;4995155;28;20493;-71
2022/03/07 09:34:33;;;;;;;23.98;14.10;;;5.60;1.00;;;;;;4994756;28;20035;-72
2022/03/07 09:36:59;;;;;;;22.90;15.48;;;5.70;1.00;;;;;;4995050;28;20034;-71
2022/03/07 09:39:25;;;;;;;22.80;14.68;;;5.60;1.00;;;;;;4994899;28;20038;-71
2022/03/07 09:41:51;;;;;;;24.27;15.40;;;5.60;1.00;;;;;;4994726;28;20049;-72
2022/03/07 09:44:17;;;;;;;27.20;14.38;;;5.60;1.00;;;;;;4994979;28;20050;-71
2022/03/07 09:46:43;;;;;;;21.52;14.23;;;5.90;1.00;;;;;;4995530;28;20046;-71
2022/03/07 09:49:09;;;;;;;20.85;14.52;;;6.00;1.00;;;;;;4994198;28;20065;-71
2022/03/07 09:51:35;;;;;;;22.75;15.05;;;6.20;1.00;;;;;;4994705;28;20055;-72
2022/03/07 09:54:01;;;;;;;26.75;15.27;;;6.40;1.00;;;;;;4994315;28;20138;-71
2022/03/07 09:56:27;;;;;;;22.25;14.00;;;6.40;1.00;;;;;;4994870;28;20049;-71
2022/03/07 09:58:53;;;;;;;20.67;14.35;;;6.60;1.00;;;;;;4994454;28;20046;-71
2022/03/07 10:01:21;;;;;;;21.80;14.95;;;6.70;1.00;;;;;;4994271;28;20070;-71
2022/03/07 10:03:48;;;;;;;22.63;14.02;;;6.80;1.00;;;;;;4993923;28;20042;-72
2022/03/07 10:06:18;;;;;;;26.45;14.52;;;6.90;1.00;;;;;;4994453;28;20038;-71
2022/03/07 10:08:52;;;;;;;21.23;14.38;;;6.90;1.00;;;;;;4994672;28;20046;-72
2022/03/07 10:11:18;;;;;;;23.88;15.15;;;6.90;1.00;;;;;;4994486;28;20042;-71
2022/03/07 10:13:59;;;;;;;23.98;14.45;;;7.10;1.00;;;;;;4997693;28;20519;-71
2022/03/07 10:16:39;;;;;;;22.63;14.57;;;7.30;1.00;;;;;;4997638;28;20431;-72
2022/03/07 10:19:10;;;;;;;20.90;14.63;;;7.70;1.00;;;;;;4997602;28;20041;-72
2022/03/07 10:21:36;;;;;;;20.38;14.20;;;7.80;1.00;;;;;;4997878;28;20058;-71
2022/03/07 10:24:02;;;;;;;21.70;13.57;;;8.20;1.00;;;;;;4997780;28;20077;-71
2022/03/07 10:26:34;;;;;;;18.25;13.75;;;8.70;1.00;;;;;;4998280;28;20063;-71
2022/03/07 10:29:00;;;;;;;20.50;13.88;;;8.70;1.00;;;;;;4997840;28;20038;-71
2022/03/07 10:31:28;;;;;;;25.13;14.25;;;8.80;1.00;;;;;;4997640;28;20124;-71
2022/03/07 10:34:08;;;;;;;23.85;12.88;;;8.90;1.00;;;;;;4997385;28;20038;-71
2022/03/07 10:36:43;;;;;;;26.17;17.23;;;9.30;1.00;;;;;;4997572;28;20034;-72
2022/03/07 10:39:15;;;;;;;43.20;26.63;;;9.20;1.00;;;;;;4997353;28;20505;-72
2022/03/07 10:41:45;;;;;;;20.50;14.15;;;9.10;1.00;;;;;;4997734;28;20070;-71
2022/03/07 10:44:24;;;;;;;17.33;13.65;;;9.10;1.00;;;;;;4997321;28;20042;-71
2022/03/07 10:46:50;;;;;;;20.23;15.48;;;9.20;1.00;;;;;;4997437;28;20501;-72
2022/03/07 10:49:19;;;;;;;20.05;13.73;;;9.20;1.00;;;;;;4997552;28;20178;-71
2022/03/07 10:51:55;;;;;;;18.42;13.73;;;9.30;1.00;;;;;;4997619;28;20072;-71
2022/03/07 10:54:22;;;;;;;31.40;19.85;;;9.50;1.00;;;;;;4997495;28;20049;-71
2022/03/07 10:56:55;;;;;;;19.63;14.35;;;9.80;1.00;;;;;;4997204;28;20121;-71
2022/03/07 10:59:32;;;;;;;17.83;12.48;;;10.00;1.00;;;;;;4997477;28;20050;-71
2022/03/07 11:02:14;;;;;;;23.13;17.08;;;9.80;1.00;;;;;;4997094;28;20041;-72
2022/03/07 11:04:41;;;;;;;20.50;13.68;;;9.90;1.00;;;;;;4997211;28;20137;-72
2022/03/07 11:07:09;;;;;;;21.83;15.05;;;9.90;1.00;;;;;;4997289;28;20041;-71
2022/03/07 11:09:36;;;;;;;17.83;13.95;;;9.70;1.00;;;;;;4996621;28;20034;-71
2022/03/07 11:12:03;;;;;;;17.75;14.98;;;9.60;1.00;;;;;;4996922;28;20432;-72
2022/03/07 11:14:30;;;;;;;18.17;13.23;;;9.80;1.00;;;;;;4997129;28;20073;-71
2022/03/07 11:16:57;;;;;;;17.42;12.98;;;10.20;1.00;;;;;;4996825;28;20038;-71
2022/03/07 11:19:25;;;;;;;18.35;13.13;;;10.10;1.00;;;;;;4996685;28;20057;-72
2022/03/07 11:21:52;;;;;;;17.13;12.80;;;10.20;1.00;;;;;;4996961;28;20046;-72
2022/03/07 11:24:23;;;;;;;16.38;13.05;;;10.20;1.00;;;;;;4996403;28;20053;-71
2022/03/07 11:26:51;;;;;;;16.63;12.35;;;9.90;1.00;;;;;;4996904;28;20478;-71
2022/03/07 11:29:17;;;;;;;15.77;11.93;;;9.50;1.00;;;;;;4996717;28;20580;-72
2022/03/07 11:31:45;;;;;;;17.02;12.82;;;9.80;1.00;;;;;;4996758;28;20040;-71
2022/03/07 11:34:12;;;;;;;16.85;12.57;;;10.20;1.00;;;;;;4996588;28;20189;-71
2022/03/07 11:36:44;;;;;;;18.90;13.65;;;10.20;1.00;;;;;;4996714;28;20073;-71
2022/03/07 11:39:12;;;;;;;19.75;13.07;;;9.90;1.00;;;;;;4996782;28;20038;-71
2022/03/07 11:41:39;;;;;;;16.63;13.02;;;9.90;1.00;;;;;;4996548;28;20031;-71
2022/03/07 11:44:13;;;;;;;16.00;12.55;;;9.70;1.00;;;;;;4996491;28;20057;-71
2022/03/07 11:46:41;;;;;;;17.08;12.82;;;9.40;1.00;;;;;;4996223;28;20050;-71
2022/03/07 11:49:10;;;;;;;18.50;12.75;;;9.10;1.00;;;;;;4996308;28;20058;-72
2022/03/07 11:51:39;;;;;;;16.52;12.23;;;9.10;1.00;;;;;;4996042;28;20030;-71
2022/03/07 11:54:20;;;;;;;16.17;12.20;;;9.20;1.00;;;;;;4995866;28;20054;-72
2022/03/07 11:56:45;;;;;;;21.23;12.60;;;9.00;1.00;;;;;;4996388;28;20046;-71
2022/03/07 11:59:11;;;;;;;14.85;11.65;;;9.10;1.00;;;;;;4995773;28;20072;-71
2022/03/07 12:01:38;;;;;;;17.88;12.45;;;9.20;1.00;;;;;;4996026;28;20084;-71
2022/03/07 12:04:15;;;;;;;16.95;11.98;;;9.10;1.00;;;;;;4995665;28;20054;-71
2022/03/07 12:06:45;;;;;;;17.23;12.57;;;9.40;1.00;;;;;;4996171;28;20088;-71
2022/03/07 12:09:21;;;;;;;18.20;12.18;;;9.50;1.00;;;;;;4995261;28;20497;-71
2022/03/07 12:11:57;;;;;;;17.63;11.93;;;9.60;1.00;;;;;;4995938;28;20524;-71
2022/03/07 12:14:28;;;;;;;15.93;11.70;;;9.40;1.00;;;;;;4995477;28;20053;-71
2022/03/07 12:16:54;;;;;;;15.63;11.35;;;9.40;1.00;;;;;;4995487;28;20041;-72
2022/03/07 12:19:22;;;;;;;16.50;10.57;;;9.40;1.00;;;;;;4995265;28;20496;-71
2022/03/07 12:21:48;;;;;;;16.88;12.23;;;9.50;1.00;;;;;;4995359;28;20040;-71
2022/03/07 12:24:21;;;;;;;13.93;10.18;;;9.50;1.00;;;;;;4995345;28;20108;-72
2022/03/07 12:26:54;;;;;;;13.68;11.48;;;9.60;1.00;;;;;;4996066;28;20034;-71
2022/03/07 12:29:22;;;;;;;18.52;12.02;;;9.70;1.00;;;;;;4995661;28;20042;-71
2022/03/07 12:31:52;;;;;;;15.68;11.60;;;9.60;1.00;;;;;;4995490;28;20038;-71
2022/03/07 12:34:19;;;;;;;13.82;11.45;;;9.70;1.00;;;;;;4994761;28;20082;-71
2022/03/07 12:36:45;;;;;;;14.63;11.18;;;9.80;1.00;;;;;;4995452;28;20073;-71
2022/03/07 12:39:12;;;;;;;13.82;11.30;;;10.00;1.00;;;;;;4995487;28;20038;-71